createdAt,value
2022-12-03T00:00:02.594Z,8.90
2022-12-03T00:02:32.407Z,8.02
2022-12-03T00:04:59.808Z,9.75
2022-12-03T00:07:27.156Z,8.82
2022-12-03T00:09:54.414Z,9.05
2022-12-03T00:12:21.573Z,7.85
2022-12-03T00:14:48.692Z,7.82
2022-12-03T00:17:15.894Z,7.93
2022-12-03T00:19:43.225Z,8.25
2022-12-03T00:22:12.654Z,7.40
2022-12-03T00:24:40.145Z,7.55
2022-12-03T00:27:07.206Z,8.02
2022-12-03T00:29:34.299Z,7.90
2022-12-03T00:32:01.476Z,7.82
2022-12-03T00:34:28.664Z,7.25
2022-12-03T00:36:55.889Z,7.32
2022-12-03T00:39:23.406Z,8.07
2022-12-03T00:41:50.624Z,6.90
2022-12-03T00:44:18.258Z,6.82
2022-12-03T00:46:45.413Z,6.88
2022-12-03T00:49:12.636Z,7.03
2022-12-03T00:51:39.730Z,6.90
2022-12-03T00:54:06.859Z,6.65
2022-12-03T00:56:34.623Z,7.03
2022-12-03T00:59:01.773Z,7.35
2022-12-03T01:01:28.947Z,7.50
2022-12-03T01:03:56.242Z,6.95
2022-12-03T01:06:23.433Z,7.10
2022-12-03T01:08:50.687Z,7.03
2022-12-03T01:11:36.340Z,8.18
2022-12-03T01:14:04.649Z,8.27
2022-12-03T01:16:32.983Z,7.32
2022-12-03T01:19:00.091Z,7.75
2022-12-03T01:21:27.264Z,8.07
2022-12-03T01:23:54.554Z,9.73
2022-12-03T01:26:21.800Z,8.07
2022-12-03T01:28:49.008Z,8.10
2022-12-03T01:31:34.862Z,9.30
2022-12-03T01:34:02.101Z,8.75
2022-12-03T01:36:29.208Z,9.32
2022-12-03T01:38:56.432Z,9.68
2022-12-03T01:41:25.123Z,9.68
2022-12-03T01:43:54.094Z,9.20
2022-12-03T01:46:37.490Z,9.18
2022-12-03T01:49:04.921Z,10.77
2022-12-03T01:51:32.185Z,10.27
2022-12-03T01:54:00.815Z,9.95
2022-12-03T01:56:28.316Z,10.65
2022-12-03T01:58:55.438Z,10.95
2022-12-03T02:01:22.622Z,9.70
2022-12-03T02:03:50.045Z,9.80
2022-12-03T02:06:22.979Z,9.98
2022-12-03T02:08:50.161Z,12.02
2022-12-03T02:11:20.864Z,10.32
2022-12-03T02:13:53.285Z,10.60
2022-12-03T02:16:20.849Z,11.55
2022-12-03T02:18:48.620Z,11.60
2022-12-03T02:21:42.720Z,10.15
2022-12-03T02:24:25.697Z,10.75
2022-12-03T02:26:52.859Z,9.45
2022-12-03T02:29:19.994Z,10.27
2022-12-03T02:31:47.223Z,9.75
2022-12-03T02:34:43.396Z,10.30
2022-12-03T02:37:17.456Z,10.77
2022-12-03T02:39:50.454Z,11.68
2022-12-03T02:42:37.193Z,9.43
2022-12-03T02:45:07.710Z,9.60
2022-12-03T02:47:39.925Z,9.55
2022-12-03T02:52:35.683Z,9.73
2022-12-03T02:55:05.418Z,8.63
2022-12-03T02:57:34.054Z,9.50
2022-12-03T03:00:01.177Z,9.98
2022-12-03T03:02:28.479Z,7.72
2022-12-03T03:04:57.059Z,8.25
2022-12-03T03:07:24.236Z,7.97
2022-12-03T03:09:51.418Z,8.90
2022-12-03T03:12:18.665Z,9.02
2022-12-03T03:14:45.876Z,8.75
2022-12-03T03:17:13.027Z,8.77
2022-12-03T03:19:40.206Z,8.40
2022-12-03T03:22:07.394Z,7.28
2022-12-03T03:24:34.517Z,7.95
2022-12-03T03:27:01.729Z,8.07
2022-12-03T03:29:28.939Z,8.02
2022-12-03T03:31:56.153Z,8.45
2022-12-03T03:34:23.409Z,7.13
2022-12-03T03:36:50.724Z,8.57
2022-12-03T03:39:17.937Z,7.05
2022-12-03T03:41:46.768Z,7.88
2022-12-03T03:44:14.389Z,8.20
2022-12-03T03:46:42.808Z,7.60
2022-12-03T03:49:10.606Z,7.15
2022-12-03T03:51:38.766Z,7.82
2022-12-03T03:54:06.180Z,7.63
2022-12-03T03:56:34.338Z,6.45
2022-12-03T03:59:02.404Z,6.88
2022-12-03T04:01:30.054Z,7.32
2022-12-03T04:03:59.631Z,7.28
2022-12-03T04:06:27.911Z,7.40
2022-12-03T04:08:55.008Z,6.10
2022-12-03T04:11:40.614Z,7.28
2022-12-03T04:14:07.786Z,6.78
2022-12-03T04:16:34.962Z,8.73
2022-12-03T04:19:02.096Z,6.97
2022-12-03T04:21:47.663Z,6.60
2022-12-03T04:24:14.820Z,7.50
2022-12-03T04:27:00.440Z,7.93
2022-12-03T04:29:27.538Z,8.25
2022-12-03T04:32:13.209Z,7.63
2022-12-03T04:34:59.280Z,8.93
2022-12-03T04:37:41.467Z,7.88
2022-12-03T04:40:29.033Z,8.98
2022-12-03T04:42:56.138Z,7.97
2022-12-03T04:45:23.192Z,8.27
2022-12-03T04:47:50.355Z,10.73
2022-12-03T04:50:17.397Z,9.18
2022-12-03T04:52:44.564Z,10.93
2022-12-03T04:55:11.636Z,10.15
2022-12-03T04:57:38.669Z,10.10
2022-12-03T05:00:06.460Z,9.57
2022-12-03T05:02:33.690Z,9.95
2022-12-03T05:05:00.867Z,9.77
2022-12-03T05:07:28.020Z,10.50
2022-12-03T05:09:55.146Z,10.20
2022-12-03T05:12:22.310Z,11.65
2022-12-03T05:14:49.375Z,10.38
2022-12-03T05:17:16.473Z,10.60
2022-12-03T05:20:02.045Z,11.68
2022-12-03T05:22:29.170Z,11.07
2022-12-03T05:24:56.680Z,11.30
2022-12-03T05:27:24.454Z,14.02
2022-12-03T05:29:52.125Z,11.70
2022-12-03T05:32:19.573Z,11.52
2022-12-03T05:34:46.648Z,12.73
2022-12-03T05:37:13.938Z,11.68
2022-12-03T05:39:41.333Z,13.15
2022-12-03T05:42:28.568Z,11.57
2022-12-03T05:44:56.593Z,12.13
2022-12-03T05:47:23.886Z,13.85
2022-12-03T05:49:51.553Z,11.80
2022-12-03T05:52:18.716Z,10.95
2022-12-03T05:54:45.847Z,11.57
2022-12-03T05:57:12.992Z,10.82
2022-12-03T05:59:40.065Z,10.88
2022-12-03T06:02:07.231Z,11.43
2022-12-03T06:04:34.545Z,11.20
2022-12-03T06:07:01.708Z,10.23
2022-12-03T06:09:28.773Z,10.07
2022-12-03T06:11:55.931Z,9.10
2022-12-03T06:14:23.156Z,9.70
2022-12-03T06:16:50.238Z,9.40
2022-12-03T06:19:17.491Z,9.00
2022-12-03T06:21:44.549Z,9.63
2022-12-03T06:24:11.568Z,9.85
2022-12-03T06:26:39.567Z,8.05
2022-12-03T06:29:06.799Z,9.70
2022-12-03T06:31:34.424Z,8.30
2022-12-03T06:34:01.599Z,9.35
2022-12-03T06:36:28.741Z,9.48
2022-12-03T06:38:55.845Z,9.32
2022-12-03T06:41:22.900Z,9.35
2022-12-03T06:43:49.958Z,7.90
2022-12-03T06:46:17.380Z,8.27
2022-12-03T06:48:44.819Z,8.48
2022-12-03T06:51:11.885Z,8.98
2022-12-03T06:53:38.990Z,8.57
2022-12-03T06:56:06.449Z,7.80
2022-12-03T06:58:33.586Z,7.88
2022-12-03T07:01:00.716Z,7.95
2022-12-03T07:03:27.949Z,7.57
2022-12-03T07:05:55.578Z,7.68
2022-12-03T07:08:22.826Z,8.93
2022-12-03T07:10:49.903Z,10.52
2022-12-03T07:13:17.155Z,9.43
2022-12-03T07:15:44.266Z,8.40
2022-12-03T07:18:11.678Z,6.72
2022-12-03T07:20:38.885Z,8.32
2022-12-03T07:23:06.054Z,7.85
2022-12-03T07:25:33.300Z,8.32
2022-12-03T07:28:00.675Z,8.05
2022-12-03T07:30:28.056Z,8.75
2022-12-03T07:32:56.335Z,7.22
2022-12-03T07:35:23.415Z,7.55
2022-12-03T07:37:50.482Z,7.78
2022-12-03T07:40:17.751Z,8.52
2022-12-03T07:42:44.920Z,6.93
2022-12-03T07:45:12.267Z,7.20
2022-12-03T07:47:39.442Z,7.72
2022-12-03T07:50:07.231Z,6.72
2022-12-03T07:52:34.297Z,6.68
2022-12-03T07:55:01.463Z,6.93
2022-12-03T07:57:28.612Z,7.65
2022-12-03T07:59:55.688Z,7.25
2022-12-03T08:02:22.871Z,6.78
2022-12-03T08:04:50.184Z,7.80
2022-12-03T08:07:17.280Z,6.38
2022-12-03T08:09:44.596Z,6.05
2022-12-03T08:12:40.300Z,6.47
2022-12-03T08:15:20.325Z,5.85
2022-12-03T08:17:54.685Z,5.60
2022-12-03T08:20:28.236Z,6.20
2022-12-03T08:22:56.660Z,6.72
2022-12-03T08:25:30.177Z,6.63
2022-12-03T08:28:20.954Z,5.47
2022-12-03T08:31:02.662Z,6.82
2022-12-03T08:33:36.791Z,6.80
2022-12-03T08:36:14.771Z,5.97
2022-12-03T08:38:43.499Z,5.18
2022-12-03T08:41:16.031Z,5.75
2022-12-03T08:43:44.014Z,5.63
2022-12-03T08:46:19.585Z,6.20
2022-12-03T08:48:49.497Z,6.10
2022-12-03T08:51:25.466Z,4.95
2022-12-03T08:54:03.561Z,5.60
2022-12-03T08:56:35.899Z,5.82
2022-12-03T08:59:25.062Z,4.93
2022-12-03T09:01:53.823Z,5.28
2022-12-03T09:04:25.311Z,5.25
2022-12-03T09:06:53.720Z,6.05
2022-12-03T09:09:21.464Z,5.00
2022-12-03T09:11:49.184Z,6.63
2022-12-03T09:14:18.990Z,5.13
2022-12-03T09:16:46.588Z,5.43
2022-12-03T09:19:14.333Z,5.40
2022-12-03T09:21:41.476Z,5.13
2022-12-03T09:24:08.765Z,5.25
2022-12-03T09:26:35.891Z,5.57
2022-12-03T09:29:07.547Z,5.25
2022-12-03T09:31:38.262Z,5.00
2022-12-03T09:34:05.962Z,5.47
2022-12-03T09:36:33.287Z,5.68
2022-12-03T09:39:00.407Z,5.13
2022-12-03T09:41:27.894Z,5.80
2022-12-03T09:44:04.832Z,5.43
2022-12-03T09:46:35.218Z,6.22
2022-12-03T09:49:05.122Z,5.38
2022-12-03T09:51:35.460Z,4.78
2022-12-03T09:54:05.709Z,4.40
2022-12-03T09:56:38.060Z,5.85
2022-12-03T09:59:15.595Z,5.32
2022-12-03T10:01:42.977Z,4.47
2022-12-03T10:04:10.959Z,4.65
2022-12-03T10:06:45.293Z,5.57
2022-12-03T10:09:17.435Z,4.90
2022-12-03T10:11:45.564Z,4.63
2022-12-03T10:14:15.509Z,4.97
2022-12-03T10:16:42.885Z,3.67
2022-12-03T10:19:19.348Z,4.68
2022-12-03T10:21:46.855Z,4.28
2022-12-03T10:24:17.179Z,5.57
2022-12-03T10:26:45.738Z,4.65
2022-12-03T10:29:31.596Z,4.47
2022-12-03T10:32:12.881Z,4.53
2022-12-03T10:34:44.887Z,4.70
2022-12-03T10:37:20.795Z,5.00
2022-12-03T10:40:10.763Z,4.90
2022-12-03T10:42:41.442Z,4.57
2022-12-03T10:45:18.241Z,5.00
2022-12-03T10:48:06.772Z,4.88
2022-12-03T10:50:35.534Z,3.90
2022-12-03T10:53:03.582Z,4.60
2022-12-03T10:55:37.426Z,4.68
2022-12-03T10:58:04.605Z,4.22
2022-12-03T11:00:31.906Z,4.53
2022-12-03T11:02:59.198Z,4.00
2022-12-03T11:05:28.598Z,4.03
2022-12-03T11:07:56.849Z,4.63
2022-12-03T11:10:24.497Z,4.53
2022-12-03T11:13:30.076Z,4.20
2022-12-03T11:15:58.482Z,4.07
2022-12-03T11:18:37.982Z,4.10
2022-12-03T11:21:13.573Z,4.85
2022-12-03T11:23:46.831Z,4.00
2022-12-03T11:26:38.099Z,4.22
2022-12-03T11:29:16.132Z,3.92
2022-12-03T11:31:47.340Z,4.25
2022-12-03T11:34:23.472Z,4.23
2022-12-03T11:37:12.595Z,4.88
2022-12-03T11:39:52.186Z,5.00
2022-12-03T11:42:31.408Z,4.82
2022-12-03T11:45:04.839Z,4.70
2022-12-03T11:47:38.959Z,4.68
2022-12-03T11:50:18.164Z,4.82
2022-12-03T11:52:47.918Z,4.32
2022-12-03T11:55:28.443Z,5.15
2022-12-03T11:58:04.579Z,5.00
2022-12-03T12:00:32.598Z,4.82
2022-12-03T12:02:59.786Z,4.35
2022-12-03T12:05:35.640Z,4.90
2022-12-03T12:08:03.531Z,4.50
2022-12-03T12:10:38.739Z,4.85
2022-12-03T12:13:06.932Z,5.35
2022-12-03T12:15:34.702Z,5.93
2022-12-03T12:18:39.747Z,4.53
2022-12-03T12:21:44.339Z,4.28
2022-12-03T12:24:31.285Z,5.05
2022-12-03T12:27:09.669Z,4.40
2022-12-03T12:29:38.501Z,4.85
2022-12-03T12:32:16.177Z,6.18
2022-12-03T12:34:46.567Z,5.68
2022-12-03T12:37:32.574Z,6.20
2022-12-03T12:40:02.171Z,6.50
2022-12-03T12:42:32.208Z,6.00
2022-12-03T12:45:14.192Z,5.53
2022-12-03T12:48:25.820Z,7.25
2022-12-03T12:51:11.145Z,6.20
2022-12-03T12:53:39.922Z,6.47
2022-12-03T12:56:22.068Z,6.53
2022-12-03T12:58:49.250Z,7.30
2022-12-03T13:01:30.289Z,8.48
2022-12-03T13:03:58.475Z,7.57
2022-12-03T13:06:31.391Z,7.20
2022-12-03T13:09:01.201Z,8.27
2022-12-03T13:11:41.537Z,8.05
2022-12-03T13:14:26.384Z,8.57
2022-12-03T13:16:56.671Z,9.43
2022-12-03T13:19:26.185Z,8.70
2022-12-03T13:22:01.523Z,9.02
2022-12-03T13:24:52.855Z,9.90
2022-12-03T13:27:20.104Z,11.82
2022-12-03T13:30:00.939Z,10.23
2022-12-03T13:32:36.736Z,10.15
2022-12-03T13:35:18.571Z,10.23
2022-12-03T13:37:45.788Z,9.48
2022-12-03T13:40:30.747Z,10.43
2022-12-03T13:42:58.967Z,9.93
2022-12-03T13:45:30.607Z,10.27
2022-12-03T13:48:02.983Z,11.50
2022-12-03T13:50:46.230Z,11.20
2022-12-03T13:53:22.332Z,9.35
2022-12-03T13:55:56.673Z,9.57
2022-12-03T13:58:25.169Z,10.85
2022-12-03T14:00:52.355Z,10.57
2022-12-03T14:03:19.972Z,10.45
2022-12-03T14:05:47.136Z,9.40
2022-12-03T14:08:14.352Z,9.85
2022-12-03T14:10:41.502Z,10.65
2022-12-03T14:13:08.704Z,10.10
2022-12-03T14:15:35.834Z,10.38
2022-12-03T14:18:02.984Z,10.85
2022-12-03T14:20:30.058Z,10.88
2022-12-03T14:22:59.457Z,10.18
2022-12-03T14:25:27.064Z,11.52
2022-12-03T14:27:54.157Z,11.15
2022-12-03T14:30:21.278Z,11.07
2022-12-03T14:32:48.406Z,10.30
2022-12-03T14:35:15.651Z,10.63
2022-12-03T14:37:42.927Z,9.38
2022-12-03T14:40:10.398Z,9.93
2022-12-03T14:42:37.677Z,10.02
2022-12-03T14:45:05.647Z,12.30
2022-12-03T14:47:32.779Z,11.10
2022-12-03T14:50:00.600Z,9.88
2022-12-03T14:52:27.878Z,10.98
2022-12-03T14:54:55.028Z,11.65
2022-12-03T14:57:22.178Z,11.07
2022-12-03T14:59:49.535Z,10.25
2022-12-03T15:02:16.770Z,10.70
2022-12-03T15:04:43.978Z,11.60
2022-12-03T15:07:11.224Z,10.05
2022-12-03T15:09:38.411Z,11.02
2022-12-03T15:12:05.966Z,10.27
2022-12-03T15:14:33.208Z,10.98
2022-12-03T15:17:00.344Z,11.10
2022-12-03T15:19:27.450Z,11.68
2022-12-03T15:21:54.634Z,10.18
2022-12-03T15:24:21.846Z,10.35
2022-12-03T15:26:49.667Z,10.15
2022-12-03T15:29:16.887Z,10.98
2022-12-03T15:31:44.699Z,9.82
2022-12-03T15:34:14.032Z,10.80
2022-12-03T15:36:44.515Z,10.02
2022-12-03T15:39:11.642Z,10.10
2022-12-03T15:41:38.837Z,9.63
2022-12-03T15:44:05.994Z,9.52
2022-12-03T15:46:33.340Z,10.80
2022-12-03T15:49:00.508Z,10.27
2022-12-03T15:51:27.637Z,10.52
2022-12-03T15:53:54.785Z,11.60
2022-12-03T15:56:21.906Z,10.75
2022-12-03T15:58:49.097Z,11.80
2022-12-03T16:01:18.468Z,11.35
2022-12-03T16:03:45.752Z,11.32
2022-12-03T16:06:14.782Z,12.40
2022-12-03T16:08:42.120Z,11.45
2022-12-03T16:11:09.356Z,12.40
2022-12-03T16:13:36.519Z,12.45
2022-12-03T16:16:04.031Z,11.13
2022-12-03T16:18:32.200Z,11.20
2022-12-03T16:20:59.300Z,11.45
2022-12-03T16:23:26.393Z,12.10
2022-12-03T16:25:53.597Z,11.98
2022-12-03T16:28:20.697Z,11.70
2022-12-03T16:30:47.789Z,12.23
2022-12-03T16:33:14.904Z,11.10
2022-12-03T16:35:42.128Z,11.63
2022-12-03T16:38:09.227Z,11.93
2022-12-03T16:40:36.348Z,12.23
2022-12-03T16:43:04.824Z,12.50
2022-12-03T16:45:50.299Z,11.23
2022-12-03T16:48:18.796Z,12.38
2022-12-03T16:50:46.154Z,12.63
2022-12-03T16:53:13.978Z,12.52
2022-12-03T16:55:41.687Z,12.25
2022-12-03T16:58:09.026Z,12.93
2022-12-03T17:00:36.225Z,10.90
2022-12-03T17:03:03.584Z,12.65
2022-12-03T17:05:30.955Z,12.77
2022-12-03T17:07:58.257Z,12.88
2022-12-03T17:10:25.461Z,13.60
2022-12-03T17:13:09.731Z,12.05
2022-12-03T17:15:37.431Z,13.10
2022-12-03T17:18:04.781Z,11.07
2022-12-03T17:20:33.407Z,12.02
2022-12-03T17:23:00.984Z,13.18
2022-12-03T17:25:28.608Z,11.93
2022-12-03T17:27:55.818Z,13.68
2022-12-03T17:30:23.085Z,13.35
2022-12-03T17:32:50.540Z,13.20
2022-12-03T17:35:18.363Z,14.30
2022-12-03T17:37:46.109Z,12.57
2022-12-03T17:40:15.663Z,13.07
2022-12-03T17:42:42.917Z,13.93
2022-12-03T17:45:10.809Z,13.77
2022-12-03T17:47:38.125Z,13.70
2022-12-03T17:50:06.615Z,14.07
2022-12-03T17:52:33.870Z,12.82
2022-12-03T17:55:27.723Z,12.48
2022-12-03T17:57:48.056Z,12.65
2022-12-03T18:00:15.721Z,12.75
2022-12-03T18:02:43.015Z,13.88
2022-12-03T18:05:10.555Z,12.82
2022-12-03T18:07:37.811Z,13.50
2022-12-03T18:10:06.056Z,13.15
2022-12-03T18:12:33.415Z,14.18
2022-12-03T18:15:00.502Z,13.75
2022-12-03T18:17:27.638Z,15.38
2022-12-03T18:19:55.053Z,14.57
2022-12-03T18:22:22.479Z,15.25
2022-12-03T18:24:51.985Z,15.48
2022-12-03T18:27:21.573Z,13.55
2022-12-03T18:29:49.250Z,14.82
2022-12-03T18:32:28.308Z,13.73
2022-12-03T18:34:57.821Z,16.65
2022-12-03T18:37:30.273Z,17.75
2022-12-03T18:39:58.696Z,15.90
2022-12-03T18:42:26.736Z,16.02
2022-12-03T18:44:56.102Z,15.02
2022-12-03T18:47:27.011Z,14.93
2022-12-03T18:49:56.278Z,15.43
2022-12-03T18:52:25.272Z,16.13
2022-12-03T18:54:53.325Z,16.92
2022-12-03T18:57:20.516Z,15.10
2022-12-03T18:59:47.726Z,17.00
2022-12-03T19:05:09.143Z,18.23
2022-12-03T19:07:36.456Z,18.00
2022-12-03T19:10:04.588Z,18.52
2022-12-03T19:12:32.341Z,20.05
2022-12-03T19:14:59.431Z,19.77
2022-12-03T19:17:27.545Z,17.38
2022-12-03T19:19:55.244Z,14.75
2022-12-03T19:22:23.689Z,15.82
2022-12-03T19:24:50.895Z,14.23
2022-12-03T19:27:18.127Z,14.93
2022-12-03T19:29:48.617Z,14.35
2022-12-03T19:32:15.910Z,16.38
2022-12-03T19:34:43.033Z,15.50
2022-12-03T19:37:10.268Z,13.98
2022-12-03T19:39:37.400Z,14.82
2022-12-03T19:42:04.738Z,15.48
2022-12-03T19:44:31.955Z,16.02
2022-12-03T19:46:59.146Z,15.90
2022-12-03T19:49:26.587Z,16.27
2022-12-03T19:51:53.928Z,15.60
2022-12-03T19:54:21.054Z,16.52
2022-12-03T19:56:48.258Z,15.75
2022-12-03T19:59:15.455Z,14.27
2022-12-03T20:01:43.425Z,13.82
2022-12-03T20:04:12.144Z,14.93
2022-12-03T20:06:39.437Z,15.20
2022-12-03T20:09:12.325Z,15.25
2022-12-03T20:11:42.650Z,15.38
2022-12-03T20:14:16.694Z,14.48
2022-12-03T20:16:45.113Z,14.80
2022-12-03T20:19:15.032Z,15.40
2022-12-03T20:21:42.853Z,16.60
2022-12-03T20:24:14.083Z,16.63
2022-12-03T20:26:41.915Z,13.77
2022-12-03T20:29:09.248Z,14.55
2022-12-03T20:31:36.486Z,14.32
2022-12-03T20:34:04.561Z,13.90
2022-12-03T20:36:32.749Z,15.70
2022-12-03T20:39:02.980Z,14.90
2022-12-03T20:41:30.227Z,15.40
2022-12-03T20:43:57.443Z,13.27
2022-12-03T20:46:30.172Z,13.95
2022-12-03T20:48:58.176Z,13.48
2022-12-03T20:51:29.836Z,13.48
2022-12-03T20:53:58.365Z,15.57
2022-12-03T20:56:31.564Z,14.77
2022-12-03T20:59:07.414Z,15.18
2022-12-03T21:01:36.135Z,15.05
2022-12-03T21:04:04.827Z,13.90
2022-12-03T21:06:34.929Z,15.95
2022-12-03T21:09:03.845Z,14.95
2022-12-03T21:11:32.521Z,13.82
2022-12-03T21:14:00.297Z,13.20
2022-12-03T21:16:59.120Z,12.32
2022-12-03T21:19:18.619Z,13.27
2022-12-03T21:21:45.858Z,12.57
2022-12-03T21:24:13.797Z,14.73
2022-12-03T21:26:41.228Z,13.32
2022-12-03T21:29:08.781Z,14.43
2022-12-03T21:31:37.880Z,15.13
2022-12-03T21:34:05.216Z,14.93
2022-12-03T21:36:32.571Z,16.63
2022-12-03T21:39:00.109Z,15.30
2022-12-03T21:41:27.373Z,16.65
2022-12-03T21:43:54.504Z,16.80
2022-12-03T21:47:09.314Z,15.68
2022-12-03T21:49:08.847Z,13.10
2022-12-03T21:51:35.983Z,15.02
2022-12-03T21:54:03.382Z,13.65
2022-12-03T21:56:31.974Z,15.75
2022-12-03T21:58:59.097Z,17.15
2022-12-03T22:01:26.507Z,14.73
2022-12-03T22:03:53.771Z,15.35
2022-12-03T22:06:22.141Z,14.27
2022-12-03T22:08:49.716Z,14.60
2022-12-03T22:11:22.162Z,14.60
2022-12-03T22:13:49.348Z,14.73
2022-12-03T22:16:19.261Z,14.80
2022-12-03T22:18:47.098Z,14.63
2022-12-03T22:21:17.782Z,15.10
2022-12-03T22:23:48.363Z,13.82
2022-12-03T22:26:18.386Z,14.15
2022-12-03T22:28:47.686Z,14.68
2022-12-03T22:31:16.230Z,13.40
2022-12-03T22:33:45.970Z,14.68
2022-12-03T22:36:19.907Z,14.07
2022-12-03T22:38:48.427Z,14.35
2022-12-03T22:41:16.050Z,15.05
2022-12-03T22:43:43.483Z,14.07
2022-12-03T22:46:12.873Z,14.10
2022-12-03T22:48:45.167Z,13.63
2022-12-03T22:51:18.365Z,14.50
2022-12-03T22:53:45.768Z,14.90
2022-12-03T22:56:13.327Z,14.60
2022-12-03T22:58:41.231Z,14.20
2022-12-03T23:01:08.442Z,14.68
2022-12-03T23:03:36.270Z,15.88
2022-12-03T23:06:10.424Z,14.70
2022-12-03T23:08:37.706Z,15.23
2022-12-03T23:11:05.114Z,16.95
2022-12-03T23:13:32.247Z,13.82
2022-12-03T23:15:59.754Z,15.25
2022-12-03T23:18:26.890Z,14.90
2022-12-03T23:20:56.471Z,14.23
2022-12-03T23:23:26.370Z,15.07
2022-12-03T23:26:07.931Z,15.68
2022-12-03T23:28:36.881Z,14.93
2022-12-03T23:31:05.765Z,14.25
2022-12-03T23:33:37.923Z,14.15
2022-12-03T23:36:06.449Z,14.73
2022-12-03T23:38:33.988Z,16.38
2022-12-03T23:41:09.540Z,14.35
2022-12-03T23:43:37.181Z,13.98
2022-12-03T23:46:06.534Z,14.10
2022-12-03T23:48:33.918Z,15.02
2022-12-03T23:51:10.186Z,17.45
2022-12-03T23:53:38.444Z,15.45
2022-12-03T23:56:11.795Z,13.55
2022-12-03T23:58:39.049Z,15.02
